Tim S. Dool — VGPY — position and weather

sailwx.info

Track history (hours):
 
Tides and Currents Weather Stations Pressure Air Temp Water Temp Dewpoint Dewpoint Depression Visibility Wind Speed Wind Dir Waves Ship Positions

Tim S. Dool

Last reported at 2017-Nov-19 05:30 UTC. Time now 2017-Nov-21 23:09 UTC.
Position N 45°31' W 073°31'.

Length 223 m; draft 8.1 m.

Type: Cargo ship. MMSI: 316001696.

Date/timePositionNaut miles runAvg speedWind from/ knotsBaromVisibWave heightAir tempDewpointWater temp
2017-Nov-19 05:30N 45°31' W 073°31'1 1.7
2017-Nov-19 04:49N 45°30' W 073°31'1 1.8
2017-Nov-19 04:30N 45°29' W 073°31'3 5.1
2017-Nov-19 04:00N 45°26' W 073°30'3 5.4
2017-Nov-19 03:30N 45°24' W 073°33'1 1.8
2017-Nov-19 03:00N 45°24' W 073°34'1 1.6
2017-Nov-19 02:30N 45°24' W 073°35'3 5.3
2017-Nov-19 02:00N 45°24' W 073°39'3 5.5
2017-Nov-19 01:30N 45°25' W 073°43'510.5
2017-Nov-19 01:00N 45°22' W 073°49'510.2
2017-Nov-19 00:30N 45°19' W 073°55'0 0.5
2017-Nov-19 00:01N 45°19' W 073°55'1 1.5
2017-Nov-18 23:30N 45°18' W 073°56'0 0.7
2017-Nov-18 23:00N 45°18' W 073°56'0 0.3
2017-Nov-18 22:30N 45°18' W 073°56'0 0.1
2017-Nov-18 22:01N 45°18' W 073°56'1 2.8
2017-Nov-18 21:30N 45°16' W 073°57'3 4.0
2017-Nov-18 20:44N 45°14' W 073°60'5 8.3
2017-Nov-18 20:08N 45°14' W 074°07'  
2017-Nov-15 13:02N 45°28' W 083°20'011.3
2017-Nov-15 13:00N 45°28' W 083°21'1611.5
2017-Nov-15 11:36N 45°41' W 083°35'112.0
2017-Nov-15 11:30N 45°42' W 083°36'612.1
2017-Nov-15 11:00N 45°46' W 083°42'  
2017-Nov-11 21:31N 45°45' W 083°42'013.3
2017-Nov-11 21:30N 45°45' W 083°42'713.4
2017-Nov-11 21:01N 45°39' W 083°37'713.5
2017-Nov-11 20:30N 45°33' W 083°31'  
Track history (hours):
 
Tides and Currents Weather Stations Pressure Air Temp Water Temp Dewpoint Dewpoint Depression Visibility Wind Speed Wind Dir Waves Ship Positions

Tim S. Dool

Last reported at 2017-Nov-19 05:30 UTC. Time now 2017-Nov-21 23:09 UTC.
Position N 45°31' W 073°31'.

Length 223 m; draft 8.1 m.

Type: Cargo ship. MMSI: 316001696.

Date/timePositionNaut miles runAvg speedWind from/ knotsBaromVisibWave heightAir tempDewpointWater temp
2017-Nov-19 05:30N 45°31' W 073°31'1 1.7
2017-Nov-19 04:49N 45°30' W 073°31'1 1.8
2017-Nov-19 04:30N 45°29' W 073°31'3 5.1
2017-Nov-19 04:00N 45°26' W 073°30'3 5.4
2017-Nov-19 03:30N 45°24' W 073°33'1 1.8
2017-Nov-19 03:00N 45°24' W 073°34'1 1.6
2017-Nov-19 02:30N 45°24' W 073°35'3 5.3
2017-Nov-19 02:00N 45°24' W 073°39'3 5.5
2017-Nov-19 01:30N 45°25' W 073°43'510.5
2017-Nov-19 01:00N 45°22' W 073°49'510.2
2017-Nov-19 00:30N 45°19' W 073°55'0 0.5
2017-Nov-19 00:01N 45°19' W 073°55'1 1.5
2017-Nov-18 23:30N 45°18' W 073°56'0 0.7
2017-Nov-18 23:00N 45°18' W 073°56'0 0.3
2017-Nov-18 22:30N 45°18' W 073°56'0 0.1
2017-Nov-18 22:01N 45°18' W 073°56'1 2.8
2017-Nov-18 21:30N 45°16' W 073°57'3 4.0
2017-Nov-18 20:44N 45°14' W 073°60'5 8.3
2017-Nov-18 20:08N 45°14' W 074°07'  
2017-Nov-15 13:02N 45°28' W 083°20'011.3
2017-Nov-15 13:00N 45°28' W 083°21'1611.5
2017-Nov-15 11:36N 45°41' W 083°35'112.0
2017-Nov-15 11:30N 45°42' W 083°36'612.1
2017-Nov-15 11:00N 45°46' W 083°42'  
2017-Nov-11 21:31N 45°45' W 083°42'013.3
2017-Nov-11 21:30N 45°45' W 083°42'713.4
2017-Nov-11 21:01N 45°39' W 083°37'713.5
2017-Nov-11 20:30N 45°33' W 083°31'  

Dump ship's entire track history